Time;durP1;ratioP1;P1;durP2;ratioP2;P2;SDS_P1;SDS_P2;PMS_P1;PMS_P2;Temp;Humidity;BMP_temperature;BMP_pressure;BME280_temperature;BME280_humidity;BME280_pressure;Samples;Min_cycle;Max_cycle;Signal;HPM_P1;HPM_P2
2023/08/27 00:01:42;;;;;;;1.23;1.13;;;24.10;87.90;;;;;;5058635;28;20204;0
2023/08/27 00:04:07;;;;;;;1.30;1.20;;;24.10;88.00;;;;;;5073855;28;20334;0
2023/08/27 00:06:36;;;;;;;1.40;1.30;;;24.10;88.00;;;;;;5057905;28;20199;0
2023/08/27 00:09:02;;;;;;;2.20;1.30;;;24.10;88.00;;;;;;5074650;28;20179;0
2023/08/27 00:11:29;;;;;;;1.57;1.20;;;24.00;88.60;;;;;;5058708;28;20172;1
2023/08/27 00:13:55;;;;;;;1.73;1.50;;;24.00;88.00;;;;;;5074783;28;20188;0
2023/08/27 00:16:23;;;;;;;1.43;1.30;;;24.00;87.90;;;;;;5073800;28;20183;0
2023/08/27 00:18:56;;;;;;;1.50;1.23;;;24.00;88.10;;;;;;5058458;28;20168;0
2023/08/27 00:21:22;;;;;;;1.50;1.30;;;24.00;88.10;;;;;;5056903;28;20222;0
2023/08/27 00:23:48;;;;;;;1.53;1.30;;;24.00;88.00;;;;;;5073795;28;20180;0
2023/08/27 00:26:14;;;;;;;2.43;1.40;;;24.00;88.10;;;;;;5056537;28;20619;0
2023/08/27 00:28:40;;;;;;;1.40;1.20;;;24.00;87.90;;;;;;5073516;28;20176;0
2023/08/27 00:31:09;;;;;;;1.27;1.10;;;24.00;87.90;;;;;;5058240;28;20226;0
2023/08/27 00:33:37;;;;;;;2.07;1.10;;;24.00;87.80;;;;;;5057204;28;20176;1
2023/08/27 00:36:03;;;;;;;1.40;1.20;;;24.00;87.80;;;;;;5056715;28;20187;0
2023/08/27 00:38:32;;;;;;;1.30;1.20;;;24.00;87.90;;;;;;5057611;28;20180;0
2023/08/27 00:41:01;;;;;;;1.30;1.20;;;23.90;87.90;;;;;;5057105;28;20671;0
2023/08/27 00:43:27;;;;;;;1.40;1.30;;;23.90;87.90;;;;;;5057142;28;20164;1
2023/08/27 00:45:53;;;;;;;1.40;1.20;;;23.90;88.00;;;;;;5057736;28;20611;0
2023/08/27 00:48:19;;;;;;;1.20;1.10;;;23.90;87.90;;;;;;5057370;28;20172;1
2023/08/27 00:50:45;;;;;;;1.20;1.10;;;23.90;87.90;;;;;;5058251;28;20184;0
2023/08/27 00:53:12;;;;;;;1.57;1.23;;;23.90;88.00;;;;;;5057369;28;20180;0
2023/08/27 00:55:38;;;;;;;1.47;1.30;;;23.90;88.00;;;;;;5057153;28;20190;1
2023/08/27 00:58:07;;;;;;;1.20;1.10;;;23.90;88.00;;;;;;5057214;28;20180;0
2023/08/27 01:00:32;;;;;;;2.00;1.30;;;23.90;88.10;;;;;;5056838;28;20290;0
2023/08/27 01:02:58;;;;;;;1.13;1.03;;;23.90;88.10;;;;;;5056870;28;20267;0
2023/08/27 01:05:27;;;;;;;1.33;1.20;;;23.90;87.80;;;;;;5057786;28;20609;0
2023/08/27 01:08:13;;;;;;;1.40;1.30;;;23.90;87.90;;;;;;5037584;28;20596;0
2023/08/27 01:11:02;;;;;;;1.23;1.13;;;23.90;87.80;;;;;;5038014;28;20430;0
2023/08/27 01:14:05;;;;;;;1.47;1.10;;;23.90;87.80;;;;;;5053429;28;20176;0
2023/08/27 01:16:33;;;;;;;1.37;1.23;;;23.80;87.60;;;;;;5033837;28;20277;1
2023/08/27 01:19:00;;;;;;;1.50;1.20;;;23.80;87.50;;;;;;5051846;28;20185;0
2023/08/27 01:21:43;;;;;;;1.23;1.13;;;23.80;87.50;;;;;;5041405;28;20211;0
2023/08/27 01:24:10;;;;;;;1.53;1.30;;;23.80;87.60;;;;;;5067160;28;20684;0
2023/08/27 01:26:41;;;;;;;1.30;1.20;;;23.80;87.60;;;;;;5056175;28;20294;0
2023/08/27 01:29:10;;;;;;;1.63;1.37;;;23.80;87.60;;;;;;5055685;28;20333;0
2023/08/27 01:32:04;;;;;;;1.20;1.10;;;23.80;87.50;;;;;;5056433;28;20230;0
2023/08/27 01:34:31;;;;;;;1.30;1.00;;;23.70;87.60;;;;;;5056094;28;20176;0
2023/08/27 01:37:00;;;;;;;1.10;1.10;;;23.70;87.70;;;;;;5055687;28;20179;0
2023/08/27 01:39:26;;;;;;;1.63;1.10;;;23.70;87.70;;;;;;5056127;28;20184;0
2023/08/27 01:41:54;;;;;;;1.27;1.17;;;23.70;87.70;;;;;;5056563;28;20200;0
2023/08/27 01:44:20;;;;;;;0.90;0.90;;;23.70;87.70;;;;;;5056689;28;20214;-1
2023/08/27 01:46:46;;;;;;;1.20;1.10;;;23.70;87.70;;;;;;5056469;28;20169;0
2023/08/27 01:49:12;;;;;;;1.10;1.00;;;23.70;87.60;;;;;;5056403;28;20183;0
2023/08/27 01:51:41;;;;;;;1.53;1.20;;;23.60;87.60;;;;;;5056104;28;20176;0
2023/08/27 01:54:09;;;;;;;1.50;1.30;;;23.60;87.60;;;;;;5058532;28;20449;1
2023/08/27 01:56:38;;;;;;;1.20;1.10;;;23.60;87.70;;;;;;5075188;28;20594;1
2023/08/27 01:59:06;;;;;;;1.07;0.97;;;23.60;87.60;;;;;;5076407;28;20202;1
2023/08/27 02:01:39;;;;;;;1.30;1.10;;;23.60;87.50;;;;;;5059576;28;20771;1
2023/08/27 02:04:07;;;;;;;1.20;1.10;;;23.60;87.60;;;;;;5059629;28;20317;0
2023/08/27 02:06:36;;;;;;;1.20;1.10;;;23.60;87.60;;;;;;5060629;28;20184;0
2023/08/27 02:09:01;;;;;;;1.03;1.00;;;23.50;87.70;;;;;;5059954;28;20176;0
2023/08/27 02:11:30;;;;;;;1.43;1.20;;;23.50;87.80;;;;;;5059835;28;20180;0
2023/08/27 02:13:59;;;;;;;1.20;1.10;;;23.50;87.80;;;;;;5076207;28;20177;0
2023/08/27 02:16:27;;;;;;;1.30;1.00;;;23.50;87.80;;;;;;5060404;28;20180;0
2023/08/27 02:18:53;;;;;;;1.50;1.20;;;23.50;87.90;;;;;;5060552;28;20182;0
2023/08/27 02:21:28;;;;;;;1.30;1.10;;;23.50;87.90;;;;;;5075854;28;20204;1
2023/08/27 02:23:53;;;;;;;1.13;1.00;;;23.50;87.80;;;;;;5076297;28;20178;0
2023/08/27 02:26:19;;;;;;;1.43;1.27;;;23.40;87.80;;;;;;5056752;28;20578;0
2023/08/27 02:28:47;;;;;;;1.40;1.30;;;23.40;87.90;;;;;;5043646;28;20526;0
2023/08/27 02:31:13;;;;;;;1.47;1.10;;;23.40;87.90;;;;;;5060386;28;20220;0
2023/08/27 02:33:44;;;;;;;1.20;1.10;;;23.40;87.80;;;;;;5060490;28;20176;0
2023/08/27 02:36:10;;;;;;;0.90;0.90;;;23.40;87.90;;;;;;5060261;28;20176;0
2023/08/27 02:38:36;;;;;;;1.10;1.00;;;23.40;87.80;;;;;;5059776;28;20172;0
2023/08/27 02:41:07;;;;;;;1.10;1.00;;;23.40;87.70;;;;;;5059090;28;20210;0
2023/08/27 02:43:32;;;;;;;1.30;1.20;;;23.40;87.90;;;;;;5060775;28;20435;0
2023/08/27 02:46:02;;;;;;;1.20;1.10;;;23.40;87.80;;;;;;5059191;28;20283;0
2023/08/27 02:48:30;;;;;;;1.07;1.00;;;23.40;87.80;;;;;;5053528;28;20200;0
2023/08/27 02:51:17;;;;;;;1.10;1.00;;;23.40;87.70;;;;;;5059755;28;20207;0
2023/08/27 02:53:45;;;;;;;1.10;1.00;;;23.30;87.80;;;;;;5060110;28;20176;0
2023/08/27 02:56:11;;;;;;;1.00;1.00;;;23.40;87.60;;;;;;5060024;28;20176;0
2023/08/27 02:58:36;;;;;;;1.10;1.00;;;23.40;87.50;;;;;;5059147;28;20608;0
2023/08/27 03:01:03;;;;;;;2.30;1.10;;;23.30;87.50;;;;;;5058576;28;20211;0
2023/08/27 03:03:31;;;;;;;1.20;1.10;;;23.40;87.40;;;;;;5059571;28;20192;0
2023/08/27 03:06:00;;;;;;;2.30;1.27;;;23.30;87.60;;;;;;5057946;28;20444;0
2023/08/27 03:08:25;;;;;;;0.97;0.97;;;23.30;87.50;;;;;;5059594;28;20172;0
2023/08/27 03:10:58;;;;;;;1.43;1.13;;;23.30;87.50;;;;;;5059589;28;20252;0
2023/08/27 03:13:24;;;;;;;1.30;1.20;;;23.20;87.40;;;;;;5059664;28;20282;0
2023/08/27 03:15:49;;;;;;;1.57;1.00;;;23.30;87.50;;;;;;5055868;28;20278;0
2023/08/27 03:18:18;;;;;;;1.33;1.20;;;23.30;87.60;;;;;;5058037;28;20582;0
2023/08/27 03:20:58;;;;;;;1.17;1.07;;;23.30;87.50;;;;;;5045577;28;20532;0
2023/08/27 03:23:24;;;;;;;1.50;1.20;;;23.30;87.50;;;;;;5055666;28;20172;0
2023/08/27 03:25:50;;;;;;;1.17;1.07;;;23.20;87.50;;;;;;5075024;28;20515;0
2023/08/27 03:28:18;;;;;;;1.03;0.93;;;23.20;87.60;;;;;;5059373;28;20529;0
2023/08/27 03:30:54;;;;;;;1.20;1.10;;;23.20;87.40;;;;;;5058572;28;20278;0
2023/08/27 03:33:20;;;;;;;2.07;1.40;;;23.20;87.70;;;;;;5058971;28;20587;0
2023/08/27 03:35:54;;;;;;;1.20;1.10;;;23.20;87.70;;;;;;5059196;28;20263;0
2023/08/27 03:38:20;;;;;;;1.10;1.00;;;23.20;87.50;;;;;;5059189;28;20183;0
2023/08/27 03:40:50;;;;;;;1.57;1.30;;;23.20;87.50;;;;;;5059144;28;20211;0
2023/08/27 03:43:27;;;;;;;1.20;1.10;;;23.20;87.40;;;;;;5074280;28;20180;0
2023/08/27 03:45:52;;;;;;;1.40;1.30;;;23.20;87.20;;;;;;5058027;28;20184;0
2023/08/27 03:48:18;;;;;;;1.20;1.10;;;23.20;87.30;;;;;;5074469;28;20282;0
2023/08/27 03:50:48;;;;;;;1.00;1.00;;;23.10;87.30;;;;;;5074648;28;20210;0
2023/08/27 03:53:20;;;;;;;1.20;1.10;;;23.20;87.20;;;;;;5054956;28;20326;0
2023/08/27 03:55:45;;;;;;;1.20;1.10;;;23.20;87.10;;;;;;5057070;28;20172;0
2023/08/27 03:58:11;;;;;;;1.10;1.00;;;23.10;87.20;;;;;;5074035;28;20173;0
2023/08/27 04:00:38;;;;;;;1.20;1.10;;;23.10;87.20;;;;;;5057930;28;20687;0
2023/08/27 04:03:05;;;;;;;1.10;1.00;;;23.10;87.50;;;;;;5058189;28;20212;0
2023/08/27 04:05:31;;;;;;;1.10;1.00;;;23.00;87.40;;;;;;5058062;28;20267;0
2023/08/27 04:07:57;;;;;;;0.93;0.93;;;23.10;87.30;;;;;;5058423;28;20898;0
2023/08/27 04:10:23;;;;;;;1.17;1.07;;;23.10;87.20;;;;;;5058208;28;20169;0
2023/08/27 04:13:10;;;;;;;1.33;1.10;;;23.10;87.10;;;;;;5057436;28;20283;0
2023/08/27 04:15:39;;;;;;;1.43;1.10;;;23.00;87.30;;;;;;5054408;28;20294;0
2023/08/27 04:18:07;;;;;;;1.50;1.17;;;23.00;88.00;;;;;;5057684;28;20743;0
2023/08/27 04:20:33;;;;;;;1.43;1.10;;;23.00;87.30;;;;;;5057713;28;20314;0
2023/08/27 04:22:58;;;;;;;1.73;1.30;;;23.00;87.30;;;;;;5057717;28;20564;0
2023/08/27 04:25:24;;;;;;;1.23;1.00;;;23.00;87.20;;;;;;5056737;28;20195;0
2023/08/27 04:27:49;;;;;;;1.20;1.10;;;23.00;87.20;;;;;;5057263;28;20196;0
2023/08/27 04:30:16;;;;;;;1.10;1.00;;;23.00;87.10;;;;;;5057937;28;20180;0
2023/08/27 04:32:43;;;;;;;0.90;0.90;;;23.00;87.20;;;;;;5058317;28;20168;0
2023/08/27 04:35:15;;;;;;;1.10;1.00;;;23.00;87.20;;;;;;5057207;28;20184;0
2023/08/27 04:37:40;;;;;;;1.30;1.20;;;23.00;87.00;;;;;;5057464;28;20176;0
2023/08/27 04:40:07;;;;;;;1.80;1.20;;;22.90;86.90;;;;;;5057695;28;20271;0
2023/08/27 04:42:35;;;;;;;1.30;1.20;;;22.90;87.10;;;;;;5058209;28;20597;0
2023/08/27 04:45:08;;;;;;;1.10;1.00;;;22.90;86.90;;;;;;5057844;28;20173;0
2023/08/27 04:47:34;;;;;;;1.40;1.00;;;22.90;86.90;;;;;;5057032;28;20283;0
2023/08/27 04:49:59;;;;;;;0.97;0.90;;;22.90;87.10;;;;;;5057362;28;20318;0
2023/08/27 04:52:28;;;;;;;1.00;1.00;;;22.90;87.10;;;;;;5057873;28;20215;0
2023/08/27 04:55:05;;;;;;;1.30;1.20;;;22.90;86.80;;;;;;5066669;28;20203;0
2023/08/27 04:57:31;;;;;;;1.20;1.10;;;22.90;86.70;;;;;;5057096;28;20245;0
2023/08/27 04:59:57;;;;;;;1.17;1.07;;;22.90;86.70;;;;;;5056560;28;20176;0
2023/08/27 05:02:23;;;;;;;1.47;1.13;;;22.90;86.50;;;;;;5057275;28;20218;0
2023/08/27 05:04:51;;;;;;;0.90;0.90;;;22.90;87.10;;;;;;5057247;28;20183;0
2023/08/27 05:07:16;;;;;;;1.10;1.10;;;22.90;86.60;;;;;;5052253;28;20272;0
2023/08/27 05:09:42;;;;;;;1.03;1.00;;;22.90;86.40;;;;;;5055377;28;20260;0
2023/08/27 05:12:08;;;;;;;1.10;1.00;;;22.90;86.40;;;;;;5056557;28;20270;0
2023/08/27 05:14:34;;;;;;;1.10;1.00;;;22.80;86.40;;;;;;5054794;28;20208;1
2023/08/27 05:17:02;;;;;;;1.30;1.13;;;22.80;86.50;;;;;;5056207;28;20196;1
2023/08/27 05:19:28;;;;;;;1.40;1.10;;;22.90;86.50;;;;;;5057539;28;20184;1
2023/08/27 05:21:54;;;;;;;0.87;0.87;;;22.80;86.50;;;;;;5056181;28;20226;1
2023/08/27 05:24:20;;;;;;;0.90;0.90;;;22.80;86.60;;;;;;5056910;28;20176;1
2023/08/27 05:26:45;;;;;;;1.27;1.00;;;22.80;86.80;;;;;;5057623;28;20631;1
2023/08/27 05:29:11;;;;;;;1.00;0.90;;;22.80;86.60;;;;;;5056292;28;20179;1
2023/08/27 05:31:36;;;;;;;1.10;1.00;;;22.80;86.70;;;;;;5056505;28;20203;1
2023/08/27 05:34:02;;;;;;;1.13;1.03;;;22.80;86.60;;;;;;5039243;28;20198;1
2023/08/27 05:36:29;;;;;;;1.03;0.97;;;22.80;86.40;;;;;;5056566;28;20279;1
2023/08/27 05:38:55;;;;;;;0.90;0.90;;;22.70;86.60;;;;;;5042294;28;20470;1
2023/08/27 05:41:23;;;;;;;1.23;1.03;;;22.70;86.50;;;;;;5036665;28;20208;1
2023/08/27 05:43:49;;;;;;;1.33;1.23;;;22.70;86.40;;;;;;5036233;28;20177;1
2023/08/27 05:46:42;;;;;;;0.90;0.90;;;22.70;86.10;;;;;;5036133;28;20207;1
2023/08/27 05:49:07;;;;;;;1.10;1.00;;;22.80;86.10;;;;;;5021034;28;20181;1
2023/08/27 05:51:33;;;;;;;2.00;1.10;;;22.70;86.20;;;;;;5035821;28;20184;1
2023/08/27 05:53:58;;;;;;;1.00;0.90;;;22.70;86.10;;;;;;5037307;28;20176;1
2023/08/27 05:56:40;;;;;;;0.90;0.90;;;22.70;86.40;;;;;;5053047;28;20557;1
2023/08/27 05:59:09;;;;;;;1.10;1.00;;;22.70;86.20;;;;;;5056429;28;20237;1
2023/08/27 06:01:34;;;;;;;1.93;1.10;;;22.70;86.50;;;;;;5040948;28;20208;1
2023/08/27 06:04:00;;;;;;;1.00;0.90;;;22.70;86.10;;;;;;5035695;28;20177;1
2023/08/27 06:06:25;;;;;;;0.97;0.97;;;22.70;86.20;;;;;;5048568;28;20228;1
2023/08/27 06:08:51;;;;;;;1.00;1.00;;;22.60;86.30;;;;;;5056113;28;20177;1
2023/08/27 06:11:16;;;;;;;1.30;1.20;;;22.60;86.30;;;;;;5056489;28;20185;1
2023/08/27 06:13:53;;;;;;;0.93;0.93;;;22.60;86.40;;;;;;5056510;28;20172;1
2023/08/27 06:16:21;;;;;;;1.10;1.00;;;22.60;86.50;;;;;;5056813;28;20175;1
2023/08/27 06:18:48;;;;;;;0.80;0.80;;;22.60;86.50;;;;;;5056309;28;20191;1
2023/08/27 06:21:13;;;;;;;1.00;1.00;;;22.60;86.50;;;;;;5055794;28;20210;1
2023/08/27 06:23:42;;;;;;;1.10;1.00;;;22.60;86.60;;;;;;5056231;28;20160;1
2023/08/27 06:26:08;;;;;;;1.10;1.00;;;22.60;86.40;;;;;;5055842;28;20258;1
2023/08/27 06:28:33;;;;;;;0.90;0.90;;;22.60;86.30;;;;;;5056297;28;20682;1
2023/08/27 06:30:59;;;;;;;1.10;1.00;;;22.60;86.40;;;;;;5056363;28;20180;1
2023/08/27 06:33:25;;;;;;;0.80;0.80;;;22.60;86.40;;;;;;5056752;28;20173;1
2023/08/27 06:36:02;;;;;;;1.37;1.27;;;22.60;86.20;;;;;;5072429;28;20253;1
2023/08/27 06:38:30;;;;;;;1.07;0.97;;;22.60;86.20;;;;;;5072444;28;20210;1
2023/08/27 06:40:55;;;;;;;1.00;0.90;;;22.60;86.10;;;;;;5058178;28;20278;0
2023/08/27 06:43:21;;;;;;;1.20;0.90;;;22.60;86.20;;;;;;5060246;28;20264;0
2023/08/27 06:45:49;;;;;;;1.10;1.00;;;22.60;86.20;;;;;;5059422;28;20184;1
2023/08/27 06:48:15;;;;;;;0.83;0.83;;;22.60;86.10;;;;;;5059702;28;20165;1
2023/08/27 06:50:44;;;;;;;0.83;0.83;;;22.60;85.80;;;;;;5059411;28;20415;1
2023/08/27 06:53:10;;;;;;;0.77;0.77;;;22.60;85.90;;;;;;5059722;28;20168;1
2023/08/27 06:55:37;;;;;;;1.03;0.97;;;22.60;85.80;;;;;;5059490;28;20157;1
2023/08/27 06:58:08;;;;;;;0.90;0.90;;;22.60;85.80;;;;;;5059008;28;20168;1
2023/08/27 07:00:34;;;;;;;0.90;0.90;;;22.50;86.00;;;;;;5059538;28;20172;1
2023/08/27 07:02:59;;;;;;;0.90;0.90;;;22.60;85.90;;;;;;5058957;28;20191;1
2023/08/27 07:05:25;;;;;;;0.90;0.90;;;22.50;85.80;;;;;;5057643;28;20173;1
2023/08/27 07:07:56;;;;;;;0.93;0.90;;;22.50;86.00;;;;;;5058558;28;20172;1
2023/08/27 07:10:22;;;;;;;0.90;0.90;;;22.60;85.90;;;;;;5059219;28;20472;1
2023/08/27 07:12:52;;;;;;;1.37;1.13;;;22.60;85.80;;;;;;5058196;28;20182;0
2023/08/27 07:15:17;;;;;;;0.80;0.80;;;22.60;85.70;;;;;;5058749;28;20202;0
2023/08/27 07:17:43;;;;;;;0.97;0.97;;;22.60;85.70;;;;;;5058537;28;20430;-1
2023/08/27 07:20:13;;;;;;;1.07;0.97;;;22.60;86.30;;;;;;5058936;28;20173;-1
2023/08/27 07:22:39;;;;;;;0.90;0.90;;;22.60;85.70;;;;;;5059060;28;20199;-1
2023/08/27 07:25:09;;;;;;;0.90;0.90;;;22.60;85.80;;;;;;5058061;28;20183;-1
2023/08/27 07:27:38;;;;;;;1.10;0.97;;;22.60;86.00;;;;;;5057992;28;20235;2
2023/08/27 07:30:04;;;;;;;2.00;0.90;;;22.60;86.30;;;;;;5058740;28;20168;1
2023/08/27 07:32:30;;;;;;;0.80;0.80;;;22.60;86.60;;;;;;5058419;28;20267;2
2023/08/27 07:34:55;;;;;;;1.63;0.97;;;22.60;86.70;;;;;;5058643;28;20263;2
2023/08/27 07:37:30;;;;;;;1.10;1.00;;;22.60;86.80;;;;;;5059019;28;20187;2
2023/08/27 07:39:56;;;;;;;1.70;1.20;;;22.70;86.70;;;;;;5058245;28;20278;1
2023/08/27 07:42:22;;;;;;;1.07;0.97;;;22.70;86.30;;;;;;5057413;28;20300;1
2023/08/27 07:44:47;;;;;;;1.10;0.80;;;22.90;85.70;;;;;;5074930;28;20164;1
2023/08/27 07:47:13;;;;;;;1.13;0.93;;;23.10;84.70;;;;;;5057658;28;20475;1
2023/08/27 07:49:44;;;;;;;0.93;0.83;;;23.30;83.50;;;;;;5058239;28;20160;1
2023/08/27 07:52:13;;;;;;;1.10;0.97;;;23.40;82.40;;;;;;5057445;28;20195;1
2023/08/27 07:54:38;;;;;;;3.47;1.10;;;23.40;82.10;;;;;;5058041;28;20246;1
2023/08/27 07:57:04;;;;;;;1.20;1.10;;;23.40;82.50;;;;;;5058240;28;20676;1
2023/08/27 07:59:30;;;;;;;1.50;1.10;;;23.40;82.80;;;;;;5058715;28;20267;1
2023/08/27 08:02:01;;;;;;;1.20;1.10;;;23.40;82.40;;;;;;5057545;28;20306;1
2023/08/27 08:04:30;;;;;;;1.67;1.30;;;23.60;81.70;;;;;;5058377;28;20172;1
2023/08/27 08:06:55;;;;;;;1.80;1.10;;;23.70;80.80;;;;;;5058025;28;20177;1
2023/08/27 08:09:24;;;;;;;2.03;1.20;;;23.80;80.40;;;;;;5058134;28;20624;1
2023/08/27 08:11:52;;;;;;;2.07;1.10;;;23.80;80.30;;;;;;5074390;28;20264;1
2023/08/27 08:14:21;;;;;;;3.43;1.20;;;23.80;80.00;;;;;;5057321;28;20180;1
2023/08/27 08:16:49;;;;;;;2.50;1.10;;;23.80;80.10;;;;;;5073584;28;20808;1
2023/08/27 08:19:14;;;;;;;1.53;0.90;;;23.90;79.70;;;;;;5057990;28;20586;1
2023/08/27 08:21:43;;;;;;;3.07;1.20;;;24.00;79.40;;;;;;5073902;28;20212;1
2023/08/27 08:24:09;;;;;;;1.47;0.90;;;23.90;79.60;;;;;;5058108;28;20199;1
2023/08/27 08:26:37;;;;;;;1.13;0.90;;;23.90;79.80;;;;;;5056884;28;20188;1
2023/08/27 08:29:03;;;;;;;1.90;1.20;;;23.80;80.10;;;;;;5073249;28;20176;1
2023/08/27 08:31:29;;;;;;;1.37;1.20;;;23.80;80.50;;;;;;5057102;28;20199;1
2023/08/27 08:33:57;;;;;;;2.10;1.10;;;23.70;81.00;;;;;;5056956;28;20173;1
2023/08/27 08:36:22;;;;;;;1.97;1.30;;;23.60;81.30;;;;;;5050872;28;20274;1
2023/08/27 08:38:48;;;;;;;1.90;1.10;;;23.60;81.50;;;;;;5056412;28;20341;1
2023/08/27 08:41:19;;;;;;;1.80;1.13;;;23.60;82.40;;;;;;5056516;28;20198;1
2023/08/27 08:43:57;;;;;;;1.37;1.00;;;23.60;82.20;;;;;;5058045;28;20163;1
2023/08/27 08:46:28;;;;;;;1.20;1.10;;;23.60;82.20;;;;;;5063502;28;20172;1
2023/08/27 08:48:55;;;;;;;1.80;1.30;;;23.60;82.30;;;;;;5057355;28;20610;2
2023/08/27 08:51:26;;;;;;;2.03;1.10;;;23.60;82.50;;;;;;5056449;28;20526;1
2023/08/27 08:53:57;;;;;;;1.27;1.17;;;23.60;82.30;;;;;;5056641;28;20469;1
2023/08/27 08:56:28;;;;;;;2.23;1.20;;;23.60;82.50;;;;;;5057163;28;20180;1
2023/08/27 08:59:01;;;;;;;1.80;1.10;;;23.60;82.50;;;;;;5056170;28;20459;1
2023/08/27 09:01:34;;;;;;;2.17;1.27;;;23.60;82.60;;;;;;5057127;28;20509;1
2023/08/27 09:04:00;;;;;;;2.00;1.40;;;23.60;82.80;;;;;;5036688;28;20453;1
2023/08/27 09:06:34;;;;;;;1.30;1.00;;;23.50;83.10;;;;;;5049895;28;20190;1
2023/08/27 09:09:01;;;;;;;2.17;0.90;;;23.50;83.00;;;;;;5055431;28;20176;1
2023/08/27 09:11:37;;;;;;;1.43;1.03;;;23.60;83.00;;;;;;5056537;28;20249;1
2023/08/27 09:14:04;;;;;;;1.37;1.27;;;23.60;83.10;;;;;;5057262;28;20156;1
2023/08/27 09:16:30;;;;;;;2.97;1.30;;;23.60;83.10;;;;;;5037822;28;20196;1
2023/08/27 09:18:56;;;;;;;1.97;1.00;;;23.60;83.00;;;;;;5034839;28;20185;1
2023/08/27 09:21:24;;;;;;;1.53;1.30;;;23.70;83.00;;;;;;5056596;28;20218;1
2023/08/27 09:24:08;;;;;;;1.20;1.10;;;23.70;83.50;;;;;;5042162;28;20200;1
2023/08/27 09:26:34;;;;;;;1.20;1.10;;;23.60;83.10;;;;;;5056123;28;20286;1
2023/08/27 09:29:06;;;;;;;2.20;1.20;;;23.60;83.00;;;;;;5056330;28;20314;1
2023/08/27 09:31:48;;;;;;;3.07;1.27;;;23.60;83.30;;;;;;5055856;28;20558;1
2023/08/27 09:34:16;;;;;;;2.23;1.10;;;23.60;83.30;;;;;;5055938;28;20191;1
2023/08/27 09:36:41;;;;;;;1.23;1.10;;;23.60;83.50;;;;;;5055324;28;20314;1
2023/08/27 09:39:12;;;;;;;1.30;1.20;;;23.60;83.40;;;;;;5055357;28;20271;0
2023/08/27 09:41:39;;;;;;;2.27;1.20;;;23.60;83.60;;;;;;5056257;28;20219;0
2023/08/27 09:44:06;;;;;;;1.73;1.20;;;23.60;83.30;;;;;;5056543;28;20246;0
2023/08/27 09:46:32;;;;;;;1.93;1.20;;;23.70;83.10;;;;;;5055807;28;20168;0
2023/08/27 09:49:01;;;;;;;1.67;1.20;;;23.90;82.30;;;;;;5056384;28;20187;0
2023/08/27 09:51:28;;;;;;;2.57;1.40;;;23.90;82.20;;;;;;5042198;28;20181;0
2023/08/27 09:53:54;;;;;;;3.40;1.33;;;24.00;81.90;;;;;;5055816;28;20180;0
2023/08/27 09:56:27;;;;;;;1.53;1.30;;;24.00;81.70;;;;;;5055448;28;20238;0
2023/08/27 09:59:04;;;;;;;1.57;1.20;;;24.00;81.40;;;;;;5043640;28;20482;0
2023/08/27 10:01:34;;;;;;;1.50;1.00;;;24.10;80.90;;;;;;5036045;28;20287;0
2023/08/27 10:04:09;;;;;;;1.50;1.40;;;24.10;80.60;;;;;;5054046;28;20187;0
2023/08/27 10:06:37;;;;;;;2.30;1.10;;;24.20;80.30;;;;;;5053949;28;20186;0
2023/08/27 10:09:50;;;;;;;1.23;1.13;;;24.30;79.80;;;;;;5053486;28;20180;0
2023/08/27 10:12:19;;;;;;;4.18;1.25;;;24.40;79.40;;;;;;5054353;28;20196;0
2023/08/27 10:14:45;;;;;;;1.48;1.10;;;24.40;79.00;;;;;;5056304;28;20241;0
2023/08/27 10:17:17;;;;;;;3.22;1.17;;;24.50;78.70;;;;;;5059725;28;20337;0
2023/08/27 10:19:43;;;;;;;2.00;1.58;;;24.50;78.40;;;;;;5059269;28;20707;0
2023/08/27 10:22:10;;;;;;;1.77;1.15;;;24.50;78.40;;;;;;5059992;28;20204;0
2023/08/27 10:24:38;;;;;;;1.23;1.10;;;24.50;78.30;;;;;;5059903;28;20177;0
2023/08/27 10:27:04;;;;;;;4.15;1.35;;;24.50;78.00;;;;;;5059920;28;20187;0
2023/08/27 10:29:30;;;;;;;1.90;1.23;;;24.50;77.80;;;;;;5059331;28;20168;0
2023/08/27 10:31:56;;;;;;;1.60;1.20;;;24.60;77.80;;;;;;5058829;28;20180;0
2023/08/27 10:34:28;;;;;;;1.95;1.45;;;24.60;77.70;;;;;;5059243;28;20172;0
2023/08/27 10:37:06;;;;;;;1.30;1.20;;;24.60;77.40;;;;;;5059664;28;20164;0
2023/08/27 10:39:36;;;;;;;1.45;1.20;;;24.70;77.00;;;;;;5059642;28;20164;0
2023/08/27 10:42:05;;;;;;;1.83;1.15;;;24.70;76.80;;;;;;5058947;28;20701;0
2023/08/27 10:44:33;;;;;;;1.45;1.20;;;24.70;77.80;;;;;;5059701;28;20550;-1
2023/08/27 10:47:17;;;;;;;1.57;1.20;;;24.70;77.10;;;;;;5058315;28;20167;0
2023/08/27 10:49:47;;;;;;;1.73;1.30;;;24.80;76.70;;;;;;5074518;28;20160;0
2023/08/27 10:52:20;;;;;;;1.85;1.23;;;24.90;76.10;;;;;;5074148;28;20322;0
2023/08/27 10:54:58;;;;;;;1.73;1.38;;;24.90;76.00;;;;;;5074391;28;20561;0
2023/08/27 10:57:24;;;;;;;2.07;1.40;;;24.90;75.90;;;;;;5056843;28;20192;0
2023/08/27 10:59:52;;;;;;;1.73;1.30;;;24.90;75.60;;;;;;5056830;28;20505;0
2023/08/27 11:02:18;;;;;;;1.73;1.30;;;24.80;75.80;;;;;;5057829;28;20290;-1
2023/08/27 11:04:48;;;;;;;1.95;1.40;;;24.80;76.40;;;;;;5055826;28;20739;0
2023/08/27 11:07:27;;;;;;;1.92;1.30;;;24.70;76.70;;;;;;5044747;28;20383;0
2023/08/27 11:09:55;;;;;;;1.50;1.30;;;24.60;77.40;;;;;;5056903;28;20188;0
2023/08/27 11:12:32;;;;;;;3.30;1.30;;;24.70;77.30;;;;;;5057468;28;20180;0
2023/08/27 11:15:25;;;;;;;2.03;1.30;;;24.90;76.50;;;;;;5058584;28;20188;0
2023/08/27 11:17:51;;;;;;;2.10;1.30;;;24.90;76.00;;;;;;5038949;28;20215;0
2023/08/27 11:20:22;;;;;;;2.10;1.30;;;24.80;76.40;;;;;;5037060;28;20185;0
2023/08/27 11:22:56;;;;;;;3.87;1.40;;;24.80;76.40;;;;;;5037487;28;20200;0
2023/08/27 11:25:42;;;;;;;2.07;1.30;;;24.90;76.10;;;;;;5038290;28;20176;0
2023/08/27 11:28:12;;;;;;;2.63;1.50;;;24.90;75.80;;;;;;5042983;28;20452;0
2023/08/27 11:30:38;;;;;;;2.63;1.50;;;24.90;75.80;;;;;;5074283;28;20176;0
2023/08/27 11:33:03;;;;;;;2.83;1.27;;;25.00;75.80;;;;;;5057077;28;20869;0
2023/08/27 11:35:29;;;;;;;2.23;1.30;;;25.00;75.60;;;;;;5069065;28;20191;0
2023/08/27 11:37:55;;;;;;;2.23;1.40;;;25.00;75.70;;;;;;5057297;28;20518;0
2023/08/27 11:40:26;;;;;;;2.67;1.50;;;25.00;75.90;;;;;;5066541;28;20287;0
2023/08/27 11:42:53;;;;;;;4.93;1.50;;;25.00;75.70;;;;;;5052115;28;20735;0
2023/08/27 11:45:32;;;;;;;2.30;1.30;;;25.00;75.60;;;;;;5072884;28;20176;0
2023/08/27 11:48:08;;;;;;;2.13;1.30;;;25.00;75.70;;;;;;5058218;28;20171;0
2023/08/27 11:50:37;;;;;;;2.60;1.53;;;25.10;75.70;;;;;;5056993;28;20225;0
2023/08/27 11:53:04;;;;;;;2.60;1.30;;;25.10;75.50;;;;;;5057392;28;20173;0
2023/08/27 11:55:31;;;;;;;2.47;1.20;;;25.10;75.50;;;;;;5057946;28;20176;0
2023/08/27 11:57:57;;;;;;;2.20;1.40;;;25.10;75.40;;;;;;5056706;28;20177;0
2023/08/27 12:00:23;;;;;;;2.00;1.47;;;25.10;75.40;;;;;;5057406;28;20299;0
2023/08/27 12:02:49;;;;;;;2.07;1.27;;;25.10;75.40;;;;;;5055970;28;20196;0
2023/08/27 12:05:18;;;;;;;2.10;1.43;;;25.20;75.50;;;;;;5050745;28;20585;0
2023/08/27 12:07:43;;;;;;;1.50;1.40;;;25.10;75.30;;;;;;5056739;28;20456;0
2023/08/27 12:10:18;;;;;;;4.53;1.43;;;25.10;75.30;;;;;;5057278;28;20588;0
2023/08/27 12:12:58;;;;;;;4.07;1.60;;;25.20;75.30;;;;;;5056283;28;20274;0
2023/08/27 12:15:29;;;;;;;2.23;1.27;;;25.20;75.20;;;;;;5057141;28;20506;0
2023/08/27 12:17:55;;;;;;;3.97;1.40;;;25.20;75.10;;;;;;5056148;28;20181;0
2023/08/27 12:20:32;;;;;;;2.77;1.50;;;25.20;75.20;;;;;;5056761;28;20241;0
2023/08/27 12:23:12;;;;;;;2.23;1.30;;;25.20;75.20;;;;;;5057314;28;20222;0
2023/08/27 12:25:53;;;;;;;1.80;1.20;;;25.20;75.30;;;;;;5037951;28;20201;0
2023/08/27 12:28:24;;;;;;;2.93;1.47;;;25.10;75.40;;;;;;5036725;28;20185;0
2023/08/27 12:30:54;;;;;;;1.33;1.13;;;25.20;75.60;;;;;;5036990;28;20219;0
2023/08/27 12:33:39;;;;;;;2.03;1.83;;;25.10;75.70;;;;;;5053416;28;20169;0
2023/08/27 12:36:08;;;;;;;2.17;1.50;;;25.10;75.80;;;;;;5036263;28;20173;0
2023/08/27 12:38:38;;;;;;;2.50;1.20;;;25.10;75.80;;;;;;5069873;28;20250;0
2023/08/27 12:41:04;;;;;;;2.67;1.47;;;25.10;75.90;;;;;;5055970;28;20190;0
2023/08/27 12:43:32;;;;;;;2.00;1.30;;;25.10;75.90;;;;;;5057782;28;20144;0
2023/08/27 12:45:58;;;;;;;3.27;1.40;;;25.10;76.20;;;;;;5055989;28;20171;0
2023/08/27 12:48:23;;;;;;;3.83;1.60;;;25.10;76.30;;;;;;5056237;28;20168;0
2023/08/27 12:50:52;;;;;;;1.80;1.40;;;25.10;76.40;;;;;;5055829;28;20182;0
2023/08/27 12:53:21;;;;;;;1.60;1.20;;;25.10;76.30;;;;;;5055536;28;20196;0
2023/08/27 12:55:48;;;;;;;2.70;1.30;;;25.10;76.10;;;;;;5057736;28;20161;-1
2023/08/27 12:58:13;;;;;;;3.10;1.60;;;25.10;76.20;;;;;;5036899;28;20169;-1
2023/08/27 13:00:39;;;;;;;2.20;1.40;;;25.10;76.00;;;;;;5036311;28;20173;-1
2023/08/27 13:03:04;;;;;;;1.27;1.17;;;25.10;75.70;;;;;;5036964;28;20196;-1
2023/08/27 13:05:31;;;;;;;2.90;1.20;;;25.10;75.70;;;;;;5045400;28;20184;-1
2023/08/27 13:08:00;;;;;;;3.10;1.20;;;25.10;75.70;;;;;;5056136;28;20169;-1
2023/08/27 13:10:27;;;;;;;1.47;1.23;;;25.20;75.80;;;;;;5056447;28;20223;-1
2023/08/27 13:12:52;;;;;;;2.77;1.27;;;25.10;75.70;;;;;;5056167;28;20187;-1
2023/08/27 13:15:18;;;;;;;2.03;1.30;;;25.10;75.90;;;;;;5056006;28;20529;-3
2023/08/27 13:17:46;;;;;;;3.77;1.10;;;25.10;75.80;;;;;;5055899;28;20187;-1